NC01 weather

Harvey Point Defense Testing Activity Airport
Hertford, North Carolina, United States

Public forecast

Using degrees Fahrenheit for public forecast. Weather courtesy of forecast.io.

METAR (pilot weather report)

Closest report is Elizabeth City Regional Airport & Coast Guard Air Station, 12.3 nm (22.8 km) NE. Retrieved 2019/02/21 05:54 UTC (10 minutes ago):

KECG 210554Z AUTO 28008KT 1 1/4SM BR OVC002 09/08 A3005 RMK AO2 SLP177 60000 T00940083 10144 20083 55006

TAF (pilot weather forecast)

Closest forecast is Elizabeth City Regional Airport & Coast Guard Air Station, 12.3 nm (22.8 km) NE. Retrieved 2019/02/21 06:48 UTC (0 seconds ago):

TAF TAF COR KECG 210544Z 2106/2206 25005KT 1SM BR OVC002 TEMPO 2106/2110 1/4SM FG OVC002 FM211000 24007KT 3/4SM BR OVC004 FM211500 25009KT 1 1/2SM -SHRA OVC004 FM212200 30006KT 3SM -SHRA OVC005